SBIL Informações do Aeroporto

Informações da Pista
Pista 11 Comprimento 5174 ft Largura 148 ft
Elevação 0 ft Limite 0 ft Heading 0
Pista 29 Comprimento 5174 ft Largura 148 ft
Elevação 0 ft Limite 0 ft Heading 0
Frequências do Aeroporto
Tipo APP Nome APP Frequência 120.1 MHZ
Navaids do Aeroporto
Tipo NDB Nome Ilheus Frequência 305 KHZ
Informações meteorológicas do aeroporto e NOTAM
ADDS - METARS form results

(1407 UTC 21 April 2019)
Data provider http://aviationweather.gov/metar/data/
 
Forecast for: SBIL (ILHEUS AIRPORT , BR)
Text: TAF SBIL 211000Z 2112/2124 06008KT 9999 SCT025 FEW030TCU TX30/2117Z TN28/2223Z
Forecast period: 1200 to 2000 UTC 21 April 2019
Forecast type: FROM: standard forecast or significant change
Winds: from the ENE (60 degrees) at 9 MPH (8 knots; 4.1 m/s)
Visibility: 6 or more miles 10+ km)
Ceiling: at least 12,000 feet AGL
Clouds: scattered clouds at 2500 feet AGL
few clouds at 3000 feet AGL
Weather: no significant weather forecast for this period
Text: BECMG 2120/2122 SCT020 RMK PFN
Forecast period: 2000 UTC 21 April 2019 to 0000 UTC 22 April 2019
Forecast type: BECOMING: Conditions expected to become as follows by 2200 UTC 21 April 2019
Winds: from the ENE (60 degrees) at 9 MPH (8 knots; 4.1 m/s)
Visibility: 6 or more miles 10+ km)
Ceiling: at least 12,000 feet AGL
Clouds: scattered clouds at 2000 feet AGL
Weather: no significant weather forecast for this period